createdAt,value
2018-12-21T00:01:09.474Z,12.60
2018-12-21T00:05:26.656Z,11.70
2018-12-21T00:09:31.035Z,16.03
2018-12-21T00:13:45.972Z,7.30
2018-12-21T00:17:50.197Z,11.10
2018-12-21T00:22:02.091Z,11.43
2018-12-21T00:26:06.268Z,10.13
2018-12-21T00:30:18.468Z,9.87
2018-12-21T00:34:27.630Z,9.13
2018-12-21T00:38:42.529Z,10.30
2018-12-21T00:47:33.053Z,13.03
2018-12-21T00:51:37.294Z,10.80
2018-12-21T00:55:42.549Z,9.17
2018-12-21T00:59:49.432Z,13.67
2018-12-21T01:03:55.096Z,13.57
2018-12-21T01:07:59.411Z,6.37
2018-12-21T01:12:03.869Z,12.83
2018-12-21T01:16:08.067Z,7.77
2018-12-21T01:20:12.382Z,9.27
2018-12-21T01:24:16.594Z,7.03
2018-12-21T01:28:20.882Z,8.00
2018-12-21T01:32:25.078Z,9.37
2018-12-21T01:36:29.322Z,9.03
2018-12-21T01:40:33.491Z,7.57
2018-12-21T01:44:37.689Z,7.80
2018-12-21T01:48:47.691Z,6.63
2018-12-21T01:52:51.941Z,11.03
2018-12-21T01:56:56.278Z,9.87
2018-12-21T02:01:00.462Z,4.70
2018-12-21T02:05:07.015Z,7.30
2018-12-21T02:09:11.200Z,7.70
2018-12-21T02:13:16.010Z,6.10
2018-12-21T02:17:20.203Z,8.93
2018-12-21T02:21:28.284Z,6.73
2018-12-21T02:25:32.454Z,8.43
2018-12-21T02:29:36.701Z,9.17
2018-12-21T02:33:40.904Z,9.40
2018-12-21T02:37:48.839Z,6.47
2018-12-21T02:41:53.023Z,8.97
2018-12-21T02:45:57.512Z,7.07
2018-12-21T02:50:01.835Z,5.80
2018-12-21T02:54:06.168Z,8.10
2018-12-21T02:58:10.356Z,10.60
2018-12-21T03:02:14.681Z,6.83
2018-12-21T03:06:19.970Z,6.93
2018-12-21T03:10:24.247Z,5.47
2018-12-21T03:14:32.174Z,7.57
2018-12-21T03:18:36.657Z,8.20
2018-12-21T03:22:40.914Z,4.60
2018-12-21T03:26:45.097Z,5.43
2018-12-21T03:30:49.467Z,6.23
2018-12-21T03:34:53.680Z,5.93
2018-12-21T03:38:58.483Z,5.83
2018-12-21T03:43:03.300Z,7.80
2018-12-21T03:47:07.609Z,8.47
2018-12-21T03:51:11.823Z,4.53
2018-12-21T03:55:16.002Z,8.13
2018-12-21T03:59:20.261Z,5.20
2018-12-21T04:03:24.500Z,6.33
2018-12-21T04:07:30.863Z,4.23
2018-12-21T04:11:35.125Z,4.80
2018-12-21T04:15:39.686Z,3.20
2018-12-21T04:19:43.845Z,5.63
2018-12-21T04:23:48.189Z,6.67
2018-12-21T04:27:54.509Z,4.87
2018-12-21T04:32:01.125Z,6.97
2018-12-21T04:36:05.319Z,5.07
2018-12-21T04:40:09.702Z,2.40
2018-12-21T04:44:13.923Z,4.20
2018-12-21T04:48:18.084Z,5.20
2018-12-21T04:52:22.267Z,5.50
2018-12-21T04:56:26.561Z,2.60
2018-12-21T05:00:30.818Z,2.70
2018-12-21T05:04:35.144Z,6.03
2018-12-21T05:08:39.319Z,7.00
2018-12-21T05:12:45.193Z,6.77
2018-12-21T05:16:50.267Z,2.00
2018-12-21T05:20:56.271Z,5.40
2018-12-21T05:25:02.330Z,6.33
2018-12-21T05:29:07.354Z,4.73
2018-12-21T05:33:12.018Z,2.70
2018-12-21T05:37:18.467Z,5.30
2018-12-21T05:41:23.496Z,3.73
2018-12-21T05:45:28.257Z,5.03
2018-12-21T05:49:34.331Z,5.97
2018-12-21T05:53:39.237Z,5.00
2018-12-21T05:57:44.047Z,4.57
2018-12-21T06:01:49.761Z,3.70
2018-12-21T06:05:54.395Z,2.53
2018-12-21T06:10:00.211Z,4.50
2018-12-21T06:14:06.492Z,4.30
2018-12-21T06:18:11.481Z,10.97
2018-12-21T06:22:16.991Z,5.67
2018-12-21T06:26:21.855Z,6.57
2018-12-21T06:30:26.129Z,6.97
2018-12-21T06:34:31.357Z,5.23
2018-12-21T06:38:36.559Z,7.37
2018-12-21T06:42:41.785Z,7.33
2018-12-21T06:46:47.971Z,8.37
2018-12-21T06:50:53.657Z,9.63
2018-12-21T06:54:58.211Z,5.77
2018-12-21T06:59:04.616Z,11.90
2018-12-21T07:03:16.899Z,5.07
2018-12-21T07:07:17.058Z,7.83
2018-12-21T07:11:26.751Z,7.03
2018-12-21T07:15:31.873Z,7.13
2018-12-21T07:19:36.552Z,7.33
2018-12-21T07:23:42.122Z,5.50
2018-12-21T07:27:46.787Z,5.43
2018-12-21T07:31:52.093Z,4.13
2018-12-21T07:35:57.836Z,9.37
2018-12-21T07:40:03.126Z,7.27
2018-12-21T07:44:07.343Z,7.37
2018-12-21T07:48:11.848Z,5.80
2018-12-21T07:52:21.345Z,20.20
2018-12-21T07:56:26.138Z,11.67
2018-12-21T08:00:31.006Z,6.10
2018-12-21T08:04:36.050Z,8.90
2018-12-21T08:08:40.787Z,8.53
2018-12-21T08:12:46.723Z,8.03
2018-12-21T08:16:52.394Z,9.60
2018-12-21T08:20:57.564Z,6.60
2018-12-21T08:25:02.702Z,7.97
2018-12-21T08:29:08.108Z,7.97
2018-12-21T08:33:13.415Z,9.00
2018-12-21T08:37:18.489Z,10.87
2018-12-21T08:41:23.432Z,8.80
2018-12-21T08:45:28.383Z,9.47
2018-12-21T08:49:33.194Z,10.37
2018-12-21T08:53:39.077Z,7.40
2018-12-21T08:57:44.889Z,7.70
2018-12-21T09:01:49.899Z,5.77
2018-12-21T09:05:55.603Z,9.17
2018-12-21T09:10:00.466Z,9.77
2018-12-21T09:14:07.139Z,5.77
2018-12-21T09:18:12.524Z,10.03
2018-12-21T09:22:18.176Z,10.17
2018-12-21T09:26:23.001Z,9.40
2018-12-21T09:30:29.268Z,11.10
2018-12-21T09:34:34.391Z,11.47
2018-12-21T09:38:39.300Z,13.93
2018-12-21T09:42:47.298Z,14.77
2018-12-21T09:46:51.878Z,15.87
2018-12-21T09:50:59.414Z,14.17
2018-12-21T09:55:04.759Z,18.17
2018-12-21T09:59:09.940Z,13.23
2018-12-21T10:03:20.885Z,17.23
2018-12-21T10:07:27.720Z,15.07
2018-12-21T10:11:33.235Z,12.37
2018-12-21T10:15:38.187Z,16.57
2018-12-21T10:19:43.898Z,16.53
2018-12-21T10:23:50.654Z,15.80
2018-12-21T10:27:55.680Z,16.23
2018-12-21T10:32:01.766Z,27.05
2018-12-21T10:36:06.559Z,26.83
2018-12-21T10:40:12.304Z,15.47
2018-12-21T10:44:17.890Z,14.77
2018-12-21T10:48:23.414Z,16.20
2018-12-21T10:52:29.089Z,14.50
2018-12-21T10:56:35.151Z,15.57
2018-12-21T11:00:40.917Z,13.80
2018-12-21T11:04:46.147Z,15.47
2018-12-21T11:08:51.755Z,16.43
2018-12-21T11:12:57.712Z,13.13
2018-12-21T11:17:02.295Z,15.00
2018-12-21T11:21:07.283Z,12.77
2018-12-21T11:25:13.950Z,14.70
2018-12-21T11:29:19.450Z,21.57
2018-12-21T11:33:24.273Z,15.63
2018-12-21T11:37:29.406Z,17.13
2018-12-21T11:41:34.982Z,16.97
2018-12-21T11:45:39.997Z,14.47
2018-12-21T11:49:44.492Z,13.00
2018-12-21T11:53:49.694Z,15.60
2018-12-21T11:57:55.182Z,15.50
2018-12-21T12:02:06.189Z,15.83
2018-12-21T12:06:11.768Z,18.20
2018-12-21T12:10:16.496Z,16.20
2018-12-21T12:14:21.571Z,12.83
2018-12-21T12:18:26.819Z,13.27
2018-12-21T12:22:31.635Z,16.13
2018-12-21T12:26:44.272Z,17.07
2018-12-21T12:30:44.039Z,12.70
2018-12-21T12:34:49.451Z,17.70
2018-12-21T12:38:55.421Z,17.40
2018-12-21T12:43:00.900Z,13.40
2018-12-21T12:47:05.414Z,14.17
2018-12-21T12:51:10.155Z,15.97
2018-12-21T12:55:14.827Z,16.53
2018-12-21T12:59:20.230Z,12.23
2018-12-21T13:03:26.468Z,14.67
2018-12-21T13:07:33.108Z,16.07
2018-12-21T13:11:38.382Z,11.40
2018-12-21T13:15:43.859Z,15.77
2018-12-21T13:19:50.838Z,11.93
2018-12-21T13:23:56.754Z,13.57
2018-12-21T13:28:02.072Z,15.07
2018-12-21T13:32:09.469Z,11.20
2018-12-21T13:36:14.048Z,16.10
2018-12-21T13:40:19.095Z,15.57
2018-12-21T13:44:23.991Z,12.70
2018-12-21T13:48:30.117Z,13.80
2018-12-21T13:52:34.428Z,14.03
2018-12-21T13:56:45.029Z,11.93
2018-12-21T14:00:51.143Z,16.23
2018-12-21T14:04:55.590Z,12.23
2018-12-21T14:09:00.077Z,13.73
2018-12-21T14:13:05.055Z,17.47
2018-12-21T14:17:13.792Z,14.10
2018-12-21T14:21:18.886Z,9.37
2018-12-21T14:25:28.804Z,12.67
2018-12-21T14:29:30.874Z,11.60
2018-12-21T14:33:35.348Z,11.17
2018-12-21T14:37:40.035Z,14.53
2018-12-21T14:41:48.840Z,10.77
2018-12-21T14:45:54.611Z,10.30
2018-12-21T14:49:59.472Z,12.50
2018-12-21T14:54:07.112Z,8.30
2018-12-21T14:58:13.368Z,11.77
2018-12-21T15:02:21.587Z,9.80
2018-12-21T15:06:27.045Z,9.87
2018-12-21T15:10:31.313Z,9.30
2018-12-21T15:14:35.949Z,10.20
2018-12-21T15:18:41.139Z,6.10
2018-12-21T15:22:45.908Z,8.73
2018-12-21T15:26:50.878Z,9.50
2018-12-21T15:30:55.590Z,9.97
2018-12-21T15:35:00.332Z,8.33
2018-12-21T15:39:07.335Z,7.77
2018-12-21T15:43:11.529Z,10.80
2018-12-21T15:47:16.886Z,8.13
2018-12-21T15:51:21.065Z,9.97
2018-12-21T15:55:25.302Z,10.43
2018-12-21T15:59:29.498Z,11.87
2018-12-21T16:03:33.679Z,10.33
2018-12-21T16:07:38.357Z,10.90
2018-12-21T16:11:42.595Z,9.63
2018-12-21T16:15:46.982Z,8.20
2018-12-21T16:19:51.265Z,10.13
2018-12-21T16:23:55.468Z,9.80
2018-12-21T16:27:59.713Z,9.87
2018-12-21T16:32:03.931Z,10.10
2018-12-21T16:36:08.119Z,12.47
2018-12-21T16:40:12.789Z,9.23
2018-12-21T16:44:17.050Z,10.50
2018-12-21T16:48:24.997Z,7.50
2018-12-21T16:52:29.217Z,11.33
2018-12-21T16:56:34.429Z,11.20
2018-12-21T17:00:38.653Z,10.43
2018-12-21T17:04:42.869Z,12.23
2018-12-21T17:08:47.069Z,8.87
2018-12-21T17:12:51.429Z,9.57
2018-12-21T17:16:55.627Z,8.40
2018-12-21T17:21:00.123Z,11.47
2018-12-21T17:25:08.653Z,8.97
2018-12-21T17:29:12.907Z,12.03
2018-12-21T17:33:17.217Z,9.60
2018-12-21T17:37:21.399Z,8.50
2018-12-21T17:41:25.630Z,11.67
2018-12-21T17:45:29.825Z,13.77
2018-12-21T17:49:34.032Z,7.97
2018-12-21T17:53:38.311Z,11.83
2018-12-21T17:57:42.571Z,7.80
2018-12-21T18:01:46.763Z,6.50
2018-12-21T18:05:50.946Z,9.10
2018-12-21T18:09:55.123Z,8.67
2018-12-21T18:13:59.332Z,7.37
2018-12-21T18:18:03.512Z,10.93
2018-12-21T18:22:24.001Z,5.67
2018-12-21T18:26:28.211Z,6.37
2018-12-21T18:30:44.776Z,5.93
2018-12-21T18:34:49.035Z,6.17
2018-12-21T18:38:53.203Z,10.73
2018-12-21T18:42:57.488Z,8.00
2018-12-21T18:47:01.694Z,8.10
2018-12-21T18:51:05.885Z,6.10
2018-12-21T18:55:12.071Z,9.93
2018-12-21T18:59:16.328Z,4.60
2018-12-21T19:03:20.547Z,4.00
2018-12-21T19:07:24.745Z,7.53
2018-12-21T19:11:28.945Z,6.67
2018-12-21T19:15:33.582Z,9.37
2018-12-21T19:19:37.894Z,8.10
2018-12-21T19:23:42.181Z,9.60
2018-12-21T19:27:46.468Z,8.17
2018-12-21T19:31:50.746Z,8.37
2018-12-21T19:35:55.156Z,6.80
2018-12-21T19:39:59.627Z,6.93
2018-12-21T19:44:04.407Z,5.73
2018-12-21T19:48:08.621Z,6.50
2018-12-21T19:52:13.183Z,9.40
2018-12-21T19:56:36.371Z,7.73
2018-12-21T20:00:40.581Z,9.63
2018-12-21T20:04:46.954Z,9.00
2018-12-21T20:08:51.140Z,10.17
2018-12-21T20:12:56.446Z,9.00
2018-12-21T20:17:01.159Z,7.43
2018-12-21T20:21:05.369Z,9.20
2018-12-21T20:25:13.062Z,5.73
2018-12-21T20:29:17.652Z,7.10
2018-12-21T20:33:25.887Z,5.90
2018-12-21T20:37:30.177Z,11.27
2018-12-21T20:41:34.578Z,7.23
2018-12-21T20:45:38.813Z,6.80
2018-12-21T20:49:43.054Z,5.50
2018-12-21T20:53:47.334Z,3.07
2018-12-21T20:57:54.653Z,5.77
2018-12-21T21:01:59.107Z,4.73
2018-12-21T21:06:03.363Z,6.07
2018-12-21T21:10:11.183Z,7.87
2018-12-21T21:14:17.060Z,8.33
2018-12-21T21:18:21.237Z,6.23
2018-12-21T21:22:25.735Z,7.20
2018-12-21T21:26:29.993Z,5.50
2018-12-21T21:30:36.507Z,4.53
2018-12-21T21:34:40.729Z,6.60
2018-12-21T21:38:45.242Z,5.97
2018-12-21T21:42:57.175Z,7.03
2018-12-21T21:46:56.249Z,4.57
2018-12-21T21:51:00.460Z,4.37
2018-12-21T21:55:04.993Z,6.70
2018-12-21T21:59:09.169Z,4.00
2018-12-21T22:03:14.575Z,4.80
2018-12-21T22:07:18.748Z,5.27
2018-12-21T22:11:22.929Z,6.37
2018-12-21T22:15:27.218Z,2.90
2018-12-21T22:19:31.394Z,2.43
2018-12-21T22:23:40.782Z,2.20
2018-12-21T22:27:48.009Z,3.93
2018-12-21T22:31:51.632Z,2.07
2018-12-21T22:35:56.102Z,6.20
2018-12-21T22:40:00.482Z,3.97
2018-12-21T22:44:05.581Z,4.90
2018-12-21T22:48:10.195Z,2.40
2018-12-21T22:52:14.603Z,4.20
2018-12-21T22:56:18.950Z,5.57
2018-12-21T23:00:28.552Z,3.20
2018-12-21T23:04:32.728Z,6.13
2018-12-21T23:08:37.569Z,3.60
2018-12-21T23:12:41.818Z,6.20
2018-12-21T23:16:46.151Z,3.70
2018-12-21T23:20:50.331Z,5.40
2018-12-21T23:24:54.573Z,5.10
2018-12-21T23:28:58.793Z,5.77
2018-12-21T23:33:03.103Z,4.43
2018-12-21T23:37:07.318Z,5.37
2018-12-21T23:41:11.676Z,3.67
2018-12-21T23:45:15.911Z,2.70
2018-12-21T23:49:20.295Z,3.83
2018-12-21T23:53:24.484Z,3.13
2018-12-21T23:57:28.795Z,5.00
